createdAt,value
2019-06-20T00:01:53.408Z,100.00
2019-06-20T00:04:22.097Z,100.00
2019-06-20T00:06:50.670Z,100.00
2019-06-20T00:09:19.363Z,100.00
2019-06-20T00:11:48.081Z,100.00
2019-06-20T00:14:16.717Z,100.00
2019-06-20T00:16:45.334Z,100.00
2019-06-20T00:19:14.034Z,100.00
2019-06-20T00:21:42.606Z,100.00
2019-06-20T00:24:11.299Z,100.00
2019-06-20T00:26:39.920Z,100.00
2019-06-20T00:29:08.738Z,100.00
2019-06-20T00:31:37.379Z,100.00
2019-06-20T00:34:05.986Z,100.00
2019-06-20T00:36:34.609Z,100.00
2019-06-20T00:41:52.500Z,100.00
2019-06-20T00:44:21.140Z,100.00
2019-06-20T00:46:49.766Z,100.00
2019-06-20T00:49:18.415Z,100.00
2019-06-20T00:51:47.026Z,100.00
2019-06-20T00:54:15.723Z,100.00
2019-06-20T00:56:44.384Z,100.00
2019-06-20T00:59:13.044Z,100.00
2019-06-20T01:01:41.732Z,100.00
2019-06-20T01:04:10.452Z,100.00
2019-06-20T01:06:39.154Z,100.00
2019-06-20T01:09:47.602Z,100.00
2019-06-20T01:12:16.320Z,100.00
2019-06-20T01:14:45.038Z,100.00
2019-06-20T01:17:13.693Z,100.00
2019-06-20T01:19:42.321Z,100.00
2019-06-20T01:22:10.930Z,100.00
2019-06-20T01:24:39.623Z,100.00
2019-06-20T01:27:08.385Z,100.00
2019-06-20T01:29:37.091Z,100.00
2019-06-20T01:32:05.722Z,100.00
2019-06-20T01:34:34.502Z,100.00
2019-06-20T01:37:03.073Z,100.00
2019-06-20T01:39:31.736Z,100.00
2019-06-20T01:42:00.411Z,100.00
2019-06-20T01:44:29.100Z,100.00
2019-06-20T01:46:57.694Z,100.00
2019-06-20T01:49:26.272Z,100.00
2019-06-20T01:51:54.909Z,100.00
2019-06-20T01:54:23.530Z,100.00
2019-06-20T01:56:52.253Z,100.00
2019-06-20T01:59:20.930Z,100.00
2019-06-20T02:01:49.583Z,100.00
2019-06-20T02:04:18.524Z,100.00
2019-06-20T02:06:47.336Z,100.00
2019-06-20T02:09:16.023Z,100.00
2019-06-20T02:11:44.668Z,100.00
2019-06-20T02:14:13.348Z,100.00
2019-06-20T02:16:41.974Z,100.00
2019-06-20T02:19:10.602Z,100.00
2019-06-20T02:21:39.256Z,100.00
2019-06-20T02:24:47.692Z,100.00
2019-06-20T02:27:16.335Z,100.00
2019-06-20T02:29:44.947Z,100.00
2019-06-20T02:32:13.594Z,100.00
2019-06-20T02:34:42.287Z,100.00
2019-06-20T02:37:10.976Z,100.00
2019-06-20T02:39:39.612Z,100.00
2019-06-20T02:42:08.394Z,100.00
2019-06-20T02:44:37.031Z,100.00
2019-06-20T02:47:05.722Z,100.00
2019-06-20T02:49:34.399Z,100.00
2019-06-20T02:52:42.880Z,100.00
2019-06-20T02:55:11.526Z,100.00
2019-06-20T02:57:40.213Z,100.00
2019-06-20T03:00:48.640Z,100.00
2019-06-20T03:03:17.321Z,100.00
2019-06-20T03:05:45.962Z,100.00
2019-06-20T03:08:14.630Z,100.00
2019-06-20T03:10:43.277Z,100.00
2019-06-20T03:13:11.959Z,100.00
2019-06-20T03:15:40.644Z,100.00
2019-06-20T03:18:09.326Z,100.00
2019-06-20T03:20:37.957Z,100.00
2019-06-20T03:23:06.643Z,100.00
2019-06-20T03:26:15.098Z,100.00
2019-06-20T03:28:43.752Z,100.00
2019-06-20T03:31:12.378Z,100.00
2019-06-20T03:33:40.883Z,100.00
2019-06-20T03:36:09.575Z,100.00
2019-06-20T03:38:38.088Z,100.00
2019-06-20T03:41:06.775Z,100.00
2019-06-20T03:43:35.343Z,100.00
2019-06-20T03:46:04.033Z,100.00
2019-06-20T03:48:32.694Z,100.00
2019-06-20T03:51:01.344Z,100.00
2019-06-20T03:53:29.958Z,100.00
2019-06-20T03:55:58.575Z,100.00
2019-06-20T03:58:27.148Z,100.00
2019-06-20T04:00:55.780Z,100.00
2019-06-20T04:03:24.366Z,100.00
2019-06-20T04:05:53.048Z,100.00
2019-06-20T04:08:21.620Z,100.00
2019-06-20T04:10:50.830Z,100.00
2019-06-20T04:13:20.862Z,100.00
2019-06-20T04:15:49.319Z,100.00
2019-06-20T04:18:17.900Z,100.00
2019-06-20T04:20:46.510Z,100.00
2019-06-20T04:23:15.152Z,100.00
2019-06-20T04:26:03.007Z,100.00
2019-06-20T04:28:31.586Z,100.00
2019-06-20T04:31:00.240Z,100.00
2019-06-20T04:33:28.926Z,100.00
2019-06-20T04:36:16.725Z,100.00
2019-06-20T04:42:32.908Z,100.00
2019-06-20T04:48:02.974Z,100.00
2019-06-20T04:50:31.601Z,100.00
2019-06-20T04:53:00.290Z,100.00
2019-06-20T04:55:28.948Z,100.00
2019-06-20T04:57:57.488Z,100.00
2019-06-20T05:00:26.124Z,100.00
2019-06-20T05:02:54.808Z,100.00
2019-06-20T05:05:23.448Z,100.00
2019-06-20T05:07:52.050Z,100.00
2019-06-20T05:10:20.696Z,100.00
2019-06-20T05:12:49.394Z,100.00
2019-06-20T05:15:51.346Z,100.00
2019-06-20T05:21:11.261Z,100.00
2019-06-20T05:23:59.023Z,100.00
2019-06-20T05:26:27.678Z,100.00
2019-06-20T05:29:15.723Z,100.00
2019-06-20T05:32:03.664Z,100.00
2019-06-20T05:34:51.637Z,100.00
2019-06-20T05:37:21.201Z,100.00
2019-06-20T05:39:51.470Z,100.00
2019-06-20T05:42:20.154Z,100.00
2019-06-20T05:44:48.717Z,100.00
2019-06-20T05:47:17.418Z,100.00
2019-06-20T05:49:45.975Z,100.00
2019-06-20T05:52:14.571Z,100.00
2019-06-20T05:54:43.366Z,100.00
2019-06-20T05:57:12.072Z,100.00
2019-06-20T05:59:40.709Z,100.00
2019-06-20T06:02:09.488Z,100.00
2019-06-20T06:04:38.159Z,100.00
2019-06-20T06:07:06.763Z,100.00
2019-06-20T06:09:35.357Z,100.00
2019-06-20T06:14:38.010Z,100.00
2019-06-20T06:17:06.854Z,100.00
2019-06-20T06:19:35.506Z,100.00
2019-06-20T06:22:04.341Z,100.00
2019-06-20T06:24:33.120Z,100.00
2019-06-20T06:27:01.677Z,100.00
2019-06-20T06:29:30.367Z,100.00
2019-06-20T06:31:59.044Z,100.00
2019-06-20T06:34:27.704Z,100.00
2019-06-20T06:37:15.659Z,100.00
2019-06-20T06:39:44.268Z,100.00
2019-06-20T06:42:13.267Z,99.06
2019-06-20T06:44:42.068Z,97.98
2019-06-20T06:53:50.950Z,91.80
2019-06-20T06:56:19.479Z,93.55
2019-06-20T06:58:48.048Z,93.93
2019-06-20T07:01:16.750Z,93.47
2019-06-20T07:03:45.483Z,90.75
2019-06-20T07:06:14.098Z,92.79
2019-06-20T07:08:42.795Z,90.51
2019-06-20T07:11:11.513Z,91.29
2019-06-20T07:13:40.142Z,88.32
2019-06-20T07:16:08.781Z,82.97
2019-06-20T07:18:37.313Z,80.32
2019-06-20T07:21:05.975Z,80.31
2019-06-20T07:23:34.447Z,80.05
2019-06-20T07:26:03.040Z,80.63
2019-06-20T07:28:31.578Z,81.83
2019-06-20T07:31:00.227Z,78.64
2019-06-20T07:33:28.696Z,76.72
2019-06-20T07:35:57.350Z,75.93
2019-06-20T07:38:25.926Z,77.56
2019-06-20T07:40:54.537Z,76.90
2019-06-20T07:43:23.100Z,75.88
2019-06-20T07:46:01.970Z,74.14
2019-06-20T07:48:22.018Z,72.51
2019-06-20T07:50:50.669Z,72.41
2019-06-20T07:53:19.145Z,70.20
2019-06-20T07:55:47.795Z,76.16
2019-06-20T07:58:16.299Z,75.40
2019-06-20T08:00:44.953Z,76.35
2019-06-20T08:03:13.493Z,80.31
2019-06-20T08:05:42.088Z,82.92
2019-06-20T08:08:10.627Z,84.21
2019-06-20T08:10:39.198Z,80.12
2019-06-20T08:13:07.776Z,76.73
2019-06-20T08:15:36.355Z,76.16
2019-06-20T08:18:44.848Z,81.15
2019-06-20T08:21:13.463Z,81.41
2019-06-20T08:23:42.068Z,84.71
2019-06-20T08:26:10.728Z,79.28
2019-06-20T08:28:39.260Z,78.28
2019-06-20T08:31:07.888Z,77.22
2019-06-20T08:33:36.428Z,75.56
2019-06-20T08:36:44.959Z,71.77
2019-06-20T08:39:13.621Z,73.32
2019-06-20T08:41:42.136Z,80.17
2019-06-20T08:44:10.778Z,78.32
2019-06-20T08:46:39.392Z,77.67
2019-06-20T08:49:08.033Z,76.81
2019-06-20T08:51:36.565Z,76.30
2019-06-20T08:54:44.993Z,76.92
2019-06-20T08:57:13.541Z,78.86
2019-06-20T08:59:42.197Z,77.37
2019-06-20T09:02:10.788Z,73.82
2019-06-20T09:04:39.443Z,72.52
2019-06-20T09:07:08.058Z,74.55
2019-06-20T09:09:36.636Z,74.86
2019-06-20T09:12:05.324Z,73.62
2019-06-20T09:14:33.966Z,76.42
2019-06-20T09:17:02.923Z,80.02
2019-06-20T09:19:32.869Z,74.84
2019-06-20T09:22:01.468Z,74.95
2019-06-20T09:24:30.129Z,73.62
2019-06-20T09:26:59.371Z,71.66
2019-06-20T09:29:41.119Z,72.62
2019-06-20T09:32:00.042Z,73.11
2019-06-20T09:34:29.764Z,70.62
2019-06-20T09:36:59.313Z,74.39
2019-06-20T09:39:28.597Z,73.42
2019-06-20T09:41:57.245Z,70.37
2019-06-20T09:44:25.857Z,70.08
2019-06-20T09:46:56.248Z,68.33
2019-06-20T09:49:24.809Z,65.66
2019-06-20T09:51:54.181Z,65.69
2019-06-20T09:54:23.732Z,66.78
2019-06-20T09:56:54.970Z,63.14
2019-06-20T09:59:27.587Z,64.36
2019-06-20T10:01:53.461Z,68.12
2019-06-20T10:04:23.392Z,66.72
2019-06-20T10:06:52.306Z,63.92
2019-06-20T10:09:21.014Z,66.45
2019-06-20T10:11:49.777Z,65.29
2019-06-20T10:14:58.118Z,64.05
2019-06-20T10:17:26.782Z,68.51
2019-06-20T10:19:56.318Z,70.13
2019-06-20T10:22:25.678Z,68.63
2019-06-20T10:24:54.155Z,64.42
2019-06-20T10:27:22.910Z,65.16
2019-06-20T10:29:51.511Z,67.77
2019-06-20T10:32:20.165Z,70.25
2019-06-20T10:34:48.765Z,71.02
2019-06-20T10:37:17.279Z,70.34
2019-06-20T10:40:25.672Z,67.62
2019-06-20T10:42:54.239Z,64.98
2019-06-20T10:46:02.633Z,63.38
2019-06-20T10:48:31.351Z,64.85
2019-06-20T10:53:39.165Z,62.78
2019-06-20T10:56:07.777Z,62.33
2019-06-20T10:59:16.217Z,60.21
2019-06-20T11:01:46.498Z,58.98
2019-06-20T11:04:15.187Z,56.23
2019-06-20T11:06:43.850Z,60.09
2019-06-20T11:09:14.087Z,60.18
2019-06-20T11:11:43.047Z,58.30
2019-06-20T11:14:12.976Z,60.90
2019-06-20T11:16:42.198Z,61.62
2019-06-20T11:19:11.961Z,57.09
2019-06-20T11:21:41.615Z,56.73
2019-06-20T11:24:10.850Z,55.18
2019-06-20T11:26:39.428Z,55.68
2019-06-20T11:29:08.044Z,54.73
2019-06-20T11:31:37.618Z,51.76
2019-06-20T11:34:06.947Z,54.91
2019-06-20T11:36:36.967Z,58.79
2019-06-20T11:42:06.818Z,58.29
2019-06-20T11:44:36.987Z,59.87
2019-06-20T11:47:05.811Z,61.55
2019-06-20T11:49:35.213Z,62.35
2019-06-20T11:52:04.757Z,60.64
2019-06-20T11:54:34.423Z,59.11
2019-06-20T11:57:03.581Z,55.11
2019-06-20T11:59:32.226Z,55.82
2019-06-20T12:02:00.768Z,55.19
2019-06-20T12:04:29.413Z,53.23
2019-06-20T12:06:58.074Z,55.09
2019-06-20T12:09:26.655Z,53.30
2019-06-20T12:11:55.189Z,55.83
2019-06-20T12:14:23.869Z,52.90
2019-06-20T12:16:52.483Z,56.22
2019-06-20T12:19:21.126Z,59.61
2019-06-20T12:21:49.656Z,62.19
2019-06-20T12:24:18.294Z,61.42
2019-06-20T12:26:46.950Z,59.66
2019-06-20T12:29:27.240Z,58.87
2019-06-20T12:31:56.283Z,62.87
2019-06-20T12:34:26.002Z,63.34
2019-06-20T12:36:54.663Z,61.03
2019-06-20T12:39:23.194Z,55.78
2019-06-20T12:41:51.724Z,59.30
2019-06-20T12:44:20.308Z,56.95
2019-06-20T12:46:49.118Z,59.46
2019-06-20T12:49:19.185Z,60.44
2019-06-20T12:51:49.002Z,60.39
2019-06-20T12:54:18.027Z,59.28
2019-06-20T12:56:46.571Z,61.12
2019-06-20T12:59:15.117Z,60.16
2019-06-20T13:01:46.519Z,60.31
2019-06-20T13:04:14.073Z,59.92
2019-06-20T13:06:42.707Z,60.58
2019-06-20T13:09:11.317Z,59.92
2019-06-20T13:11:40.736Z,60.95
2019-06-20T13:14:10.158Z,61.75
2019-06-20T13:16:39.024Z,61.00
2019-06-20T13:19:09.156Z,63.28
2019-06-20T13:21:38.834Z,73.38
2019-06-20T13:24:07.993Z,73.06
2019-06-20T13:26:36.563Z,82.21
2019-06-20T13:32:04.426Z,93.63
2019-06-20T13:34:30.588Z,96.63
2019-06-20T13:36:59.167Z,99.09
2019-06-20T13:39:27.796Z,100.00
2019-06-20T13:41:56.485Z,100.00
2019-06-20T13:44:25.140Z,99.10
2019-06-20T13:46:53.689Z,98.53
2019-06-20T13:49:22.252Z,99.09
2019-06-20T13:51:50.921Z,96.67
2019-06-20T13:54:19.512Z,96.24
2019-06-20T13:56:48.084Z,96.07
2019-06-20T13:59:16.556Z,98.01
2019-06-20T14:01:46.162Z,91.95
2019-06-20T14:04:15.451Z,91.80
2019-06-20T14:06:45.407Z,88.50
2019-06-20T14:09:14.398Z,90.96
2019-06-20T14:11:43.239Z,87.91
2019-06-20T14:14:13.368Z,89.68
2019-06-20T14:16:42.979Z,86.84
2019-06-20T14:19:12.378Z,83.57
2019-06-20T14:21:42.484Z,79.90
2019-06-20T14:24:11.289Z,78.01
2019-06-20T14:26:43.228Z,79.88
2019-06-20T14:29:10.262Z,71.56
2019-06-20T14:31:38.795Z,67.33
2019-06-20T14:34:07.372Z,69.34
2019-06-20T14:36:36.022Z,71.20
2019-06-20T14:39:45.005Z,72.69
2019-06-20T14:42:14.767Z,76.33
2019-06-20T14:44:44.651Z,72.78
2019-06-20T14:47:13.614Z,77.03
2019-06-20T14:49:42.211Z,78.38
2019-06-20T14:52:10.865Z,76.64
2019-06-20T14:54:39.463Z,70.68
2019-06-20T14:57:08.129Z,75.03
2019-06-20T14:59:36.732Z,76.78
2019-06-20T15:02:05.406Z,79.13
2019-06-20T15:04:33.990Z,82.59
2019-06-20T15:07:02.598Z,84.04
2019-06-20T15:09:31.201Z,80.59
2019-06-20T15:11:59.804Z,77.78
2019-06-20T15:14:28.490Z,75.46
2019-06-20T15:16:57.161Z,77.24
2019-06-20T15:19:25.816Z,77.29
2019-06-20T15:21:54.353Z,74.13
2019-06-20T15:24:22.937Z,76.56
2019-06-20T15:26:52.462Z,71.78
2019-06-20T15:29:21.775Z,69.85
2019-06-20T15:31:50.613Z,69.87
2019-06-20T15:34:20.545Z,69.08
2019-06-20T15:36:50.252Z,61.06
2019-06-20T15:39:19.524Z,63.28
2019-06-20T15:41:49.671Z,63.13
2019-06-20T15:44:18.515Z,62.41
2019-06-20T15:46:48.394Z,63.13
2019-06-20T15:49:17.436Z,62.92
2019-06-20T15:51:45.951Z,64.61
2019-06-20T15:54:14.580Z,66.12
2019-06-20T15:56:43.212Z,68.11
2019-06-20T15:59:11.754Z,64.42
2019-06-20T16:01:40.405Z,62.91
2019-06-20T16:04:09.062Z,59.76
2019-06-20T16:06:37.671Z,67.69
2019-06-20T16:09:46.095Z,62.40
2019-06-20T16:12:14.689Z,61.69
2019-06-20T16:14:43.277Z,63.50
2019-06-20T16:17:11.878Z,63.22
2019-06-20T16:19:40.459Z,65.54
2019-06-20T16:22:09.011Z,66.09
2019-06-20T16:24:37.596Z,70.45
2019-06-20T16:27:06.217Z,68.36
2019-06-20T16:29:34.775Z,63.80
2019-06-20T16:32:03.388Z,68.97
2019-06-20T16:34:32.041Z,68.24
2019-06-20T16:37:09.692Z,65.85
2019-06-20T16:39:30.931Z,67.15
2019-06-20T16:41:59.608Z,70.75
2019-06-20T16:44:28.085Z,65.66
2019-06-20T16:46:56.688Z,69.95
2019-06-20T16:49:25.314Z,69.02
2019-06-20T16:51:53.881Z,66.23
2019-06-20T16:54:22.389Z,70.46
2019-06-20T16:56:51.010Z,72.29
2019-06-20T16:59:19.670Z,71.34
2019-06-20T17:01:48.262Z,72.34
2019-06-20T17:04:16.889Z,68.20
2019-06-20T17:06:45.473Z,69.83
2019-06-20T17:09:14.048Z,71.56
2019-06-20T17:11:42.659Z,71.61
2019-06-20T17:14:11.224Z,68.46
2019-06-20T17:16:39.837Z,72.35
2019-06-20T17:19:08.443Z,68.62
2019-06-20T17:21:37.050Z,68.01
2019-06-20T17:24:45.482Z,69.47
2019-06-20T17:27:14.083Z,72.23
2019-06-20T17:29:42.628Z,74.51
2019-06-20T17:32:11.267Z,72.83
2019-06-20T17:34:39.869Z,72.56
2019-06-20T17:37:08.450Z,70.41
2019-06-20T17:39:37.055Z,73.59
2019-06-20T17:42:05.728Z,71.55
2019-06-20T17:44:34.370Z,73.64
2019-06-20T17:47:02.973Z,73.82
2019-06-20T17:49:31.531Z,73.83
2019-06-20T17:52:00.071Z,76.18
2019-06-20T17:54:28.666Z,77.67
2019-06-20T17:56:58.997Z,78.67
2019-06-20T17:59:27.652Z,81.50
2019-06-20T18:01:56.307Z,82.33
2019-06-20T18:04:26.888Z,82.49
2019-06-20T18:06:55.300Z,85.33
2019-06-20T18:09:23.960Z,88.37
2019-06-20T18:11:52.436Z,92.70
2019-06-20T18:14:21.083Z,89.04
2019-06-20T18:16:49.748Z,90.77
2019-06-20T18:19:18.351Z,89.89
2019-06-20T18:21:46.926Z,91.79
2019-06-20T18:27:23.630Z,97.63
2019-06-20T18:32:26.492Z,98.55
2019-06-20T18:35:02.025Z,95.12
2019-06-20T18:37:31.495Z,94.79
2019-06-20T18:39:55.662Z,98.58
2019-06-20T18:42:24.262Z,98.27
2019-06-20T18:44:52.911Z,97.36
2019-06-20T18:47:22.083Z,96.24
2019-06-20T18:49:51.755Z,96.06
2019-06-20T18:52:32.045Z,94.68
2019-06-20T18:55:00.665Z,93.90
2019-06-20T18:57:29.322Z,93.24
2019-06-20T18:59:57.859Z,93.36
2019-06-20T19:02:26.518Z,94.38
2019-06-20T19:04:55.052Z,95.06
2019-06-20T19:07:23.594Z,95.02
2019-06-20T19:09:52.241Z,95.96
2019-06-20T19:12:20.851Z,92.85
2019-06-20T19:14:49.512Z,93.44
2019-06-20T19:17:18.173Z,93.55
2019-06-20T19:19:46.705Z,94.68
2019-06-20T19:22:15.172Z,95.08
2019-06-20T19:24:43.851Z,94.65
2019-06-20T19:27:12.452Z,93.93
2019-06-20T19:29:41.099Z,96.07
2019-06-20T19:32:09.842Z,98.42
2019-06-20T19:34:38.488Z,99.06
2019-06-20T19:37:07.098Z,100.00
2019-06-20T19:39:35.741Z,100.00
2019-06-20T19:42:04.432Z,100.00
2019-06-20T19:44:33.010Z,100.00
2019-06-20T19:47:01.733Z,100.00
2019-06-20T19:52:32.370Z,100.00
2019-06-20T19:55:01.000Z,100.00
2019-06-20T19:57:29.629Z,100.00
2019-06-20T19:59:58.278Z,100.00
2019-06-20T20:02:26.887Z,100.00
2019-06-20T20:04:55.551Z,100.00
2019-06-20T20:07:24.258Z,100.00
2019-06-20T20:09:52.872Z,100.00
2019-06-20T20:12:21.611Z,100.00
2019-06-20T20:14:50.162Z,100.00
2019-06-20T20:17:18.835Z,100.00
2019-06-20T20:19:47.554Z,100.00
2019-06-20T20:22:27.815Z,100.00
2019-06-20T20:24:56.433Z,99.35
2019-06-20T20:27:25.078Z,100.00
2019-06-20T20:29:53.776Z,100.00
2019-06-20T20:32:22.383Z,100.00
2019-06-20T20:34:51.001Z,100.00
2019-06-20T20:37:19.603Z,100.00
2019-06-20T20:39:48.212Z,100.00
2019-06-20T20:42:17.810Z,100.00
2019-06-20T20:44:47.154Z,100.00
2019-06-20T20:47:15.802Z,100.00
2019-06-20T20:49:44.458Z,100.00
2019-06-20T20:52:13.044Z,100.00
2019-06-20T20:54:41.592Z,100.00
2019-06-20T20:57:10.260Z,100.00
2019-06-20T20:59:38.882Z,100.00
2019-06-20T21:02:07.523Z,100.00
2019-06-20T21:04:35.999Z,100.00
2019-06-20T21:07:04.652Z,100.00
2019-06-20T21:09:33.204Z,100.00
2019-06-20T21:12:01.847Z,100.00
2019-06-20T21:14:30.468Z,100.00
2019-06-20T21:16:59.058Z,100.00
2019-06-20T21:19:27.682Z,100.00
2019-06-20T21:21:56.338Z,100.00
2019-06-20T21:24:24.968Z,100.00
2019-06-20T21:26:53.596Z,100.00
2019-06-20T21:29:22.150Z,100.00
2019-06-20T21:31:50.683Z,100.00
2019-06-20T21:34:19.235Z,100.00
2019-06-20T21:36:47.784Z,100.00
2019-06-20T21:39:16.432Z,100.00
2019-06-20T21:41:45.039Z,100.00
2019-06-20T21:44:13.723Z,100.00
2019-06-20T21:46:42.339Z,100.00
2019-06-20T21:49:10.995Z,100.00
2019-06-20T21:51:39.651Z,100.00
2019-06-20T21:54:08.188Z,100.00
2019-06-20T21:56:36.859Z,100.00
2019-06-20T21:59:05.484Z,100.00
2019-06-20T22:04:29.258Z,100.00
2019-06-20T22:06:57.941Z,100.00
2019-06-20T22:09:26.593Z,100.00
2019-06-20T22:11:55.219Z,100.00
2019-06-20T22:14:23.796Z,100.00
2019-06-20T22:20:00.583Z,100.00
2019-06-20T22:22:29.046Z,100.00
2019-06-20T22:24:57.674Z,100.00
2019-06-20T22:27:26.329Z,100.00
2019-06-20T22:29:54.999Z,100.00
2019-06-20T22:32:23.639Z,100.00
2019-06-20T22:34:52.231Z,100.00
2019-06-20T22:37:20.749Z,100.00
2019-06-20T22:39:49.296Z,100.00
2019-06-20T22:42:17.876Z,100.00
2019-06-20T22:44:46.446Z,100.00
2019-06-20T22:47:15.039Z,100.00
2019-06-20T22:49:43.506Z,100.00
2019-06-20T22:52:12.166Z,100.00
2019-06-20T22:54:40.699Z,100.00
2019-06-20T22:57:09.405Z,100.00
2019-06-20T22:59:37.941Z,100.00
2019-06-20T23:02:06.593Z,100.00
2019-06-20T23:04:35.131Z,100.00
2019-06-20T23:07:03.803Z,100.00
2019-06-20T23:09:32.309Z,100.00
2019-06-20T23:12:00.873Z,100.00
2019-06-20T23:14:29.545Z,100.00
2019-06-20T23:16:58.232Z,100.00
2019-06-20T23:19:26.836Z,100.00
2019-06-20T23:21:55.472Z,100.00
2019-06-20T23:24:24.028Z,100.00
2019-06-20T23:26:52.618Z,100.00
2019-06-20T23:29:40.323Z,100.00
2019-06-20T23:32:08.942Z,100.00
2019-06-20T23:34:37.525Z,100.00
2019-06-20T23:37:12.539Z,100.00
2019-06-20T23:39:36.509Z,100.00
2019-06-20T23:42:05.157Z,100.00
2019-06-20T23:44:33.784Z,100.00
2019-06-20T23:47:02.386Z,100.00
2019-06-20T23:49:30.846Z,100.00
2019-06-20T23:52:18.549Z,100.00
2019-06-20T23:54:47.056Z,100.00
2019-06-20T23:57:15.671Z,100.00
2019-06-20T23:59:44.255Z,100.00
